createdAt,value
2019-01-16T00:01:32.741Z,4.22
2019-01-16T00:04:19.642Z,4.15
2019-01-16T00:07:03.086Z,4.13
2019-01-16T00:10:03.503Z,4.10
2019-01-16T00:12:51.720Z,4.10
2019-01-16T00:15:48.907Z,4.07
2019-01-16T00:18:40.125Z,4.16
2019-01-16T00:21:27.226Z,4.18
2019-01-16T00:24:13.268Z,4.14
2019-01-16T00:27:02.364Z,4.14
2019-01-16T00:30:08.669Z,4.11
2019-01-16T00:32:56.887Z,4.01
2019-01-16T00:35:43.931Z,4.10
2019-01-16T00:38:35.373Z,4.10
2019-01-16T00:41:15.591Z,4.12
2019-01-16T00:44:12.658Z,4.13
2019-01-16T00:47:12.957Z,4.08
2019-01-16T00:49:59.987Z,4.10
2019-01-16T00:52:47.104Z,4.12
2019-01-16T00:55:35.319Z,4.13
2019-01-16T00:58:15.031Z,4.13
2019-01-16T01:01:02.389Z,4.11
2019-01-16T01:04:02.628Z,4.04
2019-01-16T01:07:00.189Z,4.10
2019-01-16T01:09:41.415Z,4.06
2019-01-16T01:12:21.167Z,4.14
2019-01-16T01:15:08.226Z,4.09
2019-01-16T01:18:14.833Z,4.12
2019-01-16T01:21:05.827Z,4.14
2019-01-16T01:24:06.235Z,4.10
2019-01-16T01:26:52.914Z,4.09
2019-01-16T01:29:40.001Z,4.12
2019-01-16T01:32:25.597Z,4.17
2019-01-16T01:35:12.832Z,4.13
2019-01-16T01:37:59.632Z,4.12
2019-01-16T01:40:50.900Z,4.12
2019-01-16T01:43:30.972Z,4.08
2019-01-16T01:46:13.818Z,4.06
2019-01-16T01:49:14.075Z,4.04
2019-01-16T01:52:12.180Z,4.07
2019-01-16T01:54:59.244Z,4.11
2019-01-16T01:57:56.600Z,4.07
2019-01-16T02:00:54.887Z,4.09
2019-01-16T02:03:55.070Z,4.08
2019-01-16T02:06:33.512Z,4.09
2019-01-16T02:09:29.643Z,4.02
2019-01-16T02:12:16.769Z,4.04
2019-01-16T02:15:02.153Z,4.05
2019-01-16T02:17:51.668Z,4.07
2019-01-16T02:20:40.001Z,3.97
2019-01-16T02:23:23.537Z,4.05
2019-01-16T02:26:08.323Z,4.05
2019-01-16T02:28:56.887Z,4.05
2019-01-16T02:31:43.950Z,4.09
2019-01-16T02:34:32.142Z,4.15
2019-01-16T02:37:09.715Z,4.09
2019-01-16T02:39:53.306Z,4.11
2019-01-16T02:42:34.128Z,4.14
2019-01-16T02:45:22.327Z,4.18
2019-01-16T02:48:15.312Z,4.17
2019-01-16T02:51:02.364Z,4.16
2019-01-16T02:54:06.124Z,4.16
2019-01-16T02:57:03.070Z,4.18
2019-01-16T03:00:03.724Z,4.22
2019-01-16T03:02:51.962Z,4.22
2019-01-16T03:05:39.073Z,4.19
2019-01-16T03:08:20.859Z,4.24
2019-01-16T03:11:09.162Z,4.20
2019-01-16T03:14:06.502Z,4.20
2019-01-16T03:16:53.600Z,4.19
2019-01-16T03:19:53.832Z,4.11
2019-01-16T03:22:40.759Z,4.12
2019-01-16T03:25:37.846Z,4.13
2019-01-16T03:28:28.925Z,4.04
2019-01-16T03:31:19.900Z,4.20
2019-01-16T03:34:06.792Z,4.19
2019-01-16T03:36:58.070Z,4.26
2019-01-16T03:40:01.681Z,4.25
2019-01-16T03:42:42.169Z,4.23
2019-01-16T03:45:24.388Z,4.13
2019-01-16T03:48:11.491Z,4.20
2019-01-16T03:51:04.853Z,4.26
2019-01-16T03:54:11.541Z,4.18
2019-01-16T03:57:11.429Z,4.16
2019-01-16T03:59:59.618Z,4.19
2019-01-16T04:02:46.426Z,4.17
2019-01-16T04:05:33.281Z,4.16
2019-01-16T04:08:30.899Z,4.11
2019-01-16T04:11:34.156Z,4.15
2019-01-16T04:14:14.854Z,4.16
2019-01-16T04:17:01.709Z,4.13
2019-01-16T04:19:40.054Z,4.09
2019-01-16T04:22:37.545Z,4.12
2019-01-16T04:25:24.868Z,4.22
2019-01-16T04:28:11.715Z,4.19
2019-01-16T04:31:07.093Z,4.26
2019-01-16T04:33:54.493Z,4.27
2019-01-16T04:36:48.925Z,4.25
2019-01-16T04:39:43.417Z,4.26
2019-01-16T04:42:23.154Z,4.30
2019-01-16T04:45:20.473Z,4.30
2019-01-16T04:48:00.854Z,4.29
2019-01-16T04:50:47.834Z,4.23
2019-01-16T04:53:34.701Z,4.27
2019-01-16T04:56:22.186Z,4.25
2019-01-16T04:59:13.598Z,4.29
2019-01-16T05:02:05.045Z,4.18
2019-01-16T05:05:08.490Z,4.12
2019-01-16T05:07:55.656Z,4.19
2019-01-16T05:10:49.943Z,4.13
2019-01-16T05:13:41.209Z,4.20
2019-01-16T05:16:32.240Z,4.24
2019-01-16T05:19:19.224Z,4.24
2019-01-16T05:22:13.518Z,4.22
2019-01-16T05:25:06.902Z,4.19
2019-01-16T05:27:58.186Z,4.18
2019-01-16T05:30:42.457Z,4.14
2019-01-16T05:33:20.272Z,4.07
2019-01-16T05:36:14.485Z,4.12
2019-01-16T05:39:11.705Z,4.00
2019-01-16T05:41:58.818Z,4.09
2019-01-16T05:44:50.074Z,4.15
2019-01-16T05:47:30.031Z,4.13
2019-01-16T05:50:07.769Z,4.08
2019-01-16T05:52:48.678Z,4.04
2019-01-16T05:55:31.654Z,4.10
2019-01-16T05:58:10.971Z,4.09
2019-01-16T06:01:12.860Z,4.07
2019-01-16T06:04:13.352Z,4.02
2019-01-16T06:06:59.948Z,4.01
2019-01-16T06:09:50.938Z,3.99
2019-01-16T06:12:42.074Z,3.99
2019-01-16T06:15:27.365Z,4.05
2019-01-16T06:18:28.145Z,4.07
2019-01-16T06:21:16.338Z,4.10
2019-01-16T06:24:04.900Z,4.11
2019-01-16T06:27:05.483Z,4.16
2019-01-16T06:30:09.374Z,4.19
2019-01-16T06:33:06.901Z,4.19
2019-01-16T06:36:01.401Z,4.12
2019-01-16T06:38:58.336Z,4.04
2019-01-16T06:41:35.946Z,4.09
2019-01-16T06:44:30.883Z,4.09
2019-01-16T06:47:25.146Z,4.07
2019-01-16T06:50:16.836Z,4.00
2019-01-16T06:53:10.922Z,4.01
2019-01-16T06:56:11.185Z,4.11
2019-01-16T06:59:14.504Z,4.08
2019-01-16T07:02:01.288Z,4.04
2019-01-16T07:04:48.288Z,4.03
2019-01-16T07:07:35.111Z,4.07
2019-01-16T07:10:19.809Z,4.01
2019-01-16T07:12:57.778Z,3.94
2019-01-16T07:15:47.982Z,3.92
2019-01-16T07:18:37.734Z,3.98
2019-01-16T07:21:24.914Z,4.00
2019-01-16T07:24:07.347Z,3.96
2019-01-16T07:26:58.410Z,3.92
2019-01-16T07:30:04.750Z,3.94
2019-01-16T07:32:52.970Z,3.93
2019-01-16T07:35:41.190Z,3.92
2019-01-16T07:38:44.866Z,3.83
2019-01-16T07:41:45.037Z,3.97
2019-01-16T07:44:27.908Z,3.97
2019-01-16T07:47:09.903Z,3.98
2019-01-16T07:49:57.044Z,4.05
2019-01-16T07:52:55.442Z,4.06
2019-01-16T07:55:49.973Z,3.96
2019-01-16T07:58:27.440Z,3.98
2019-01-16T08:01:26.539Z,3.99
2019-01-16T08:04:20.964Z,3.99
2019-01-16T08:07:09.047Z,4.08
2019-01-16T08:10:06.570Z,4.05
2019-01-16T08:13:06.296Z,3.92
2019-01-16T08:15:54.519Z,3.95
2019-01-16T08:19:02.072Z,4.02
2019-01-16T08:21:49.042Z,3.99
2019-01-16T08:24:46.345Z,3.92
2019-01-16T08:27:43.505Z,4.02
2019-01-16T08:30:32.139Z,4.08
2019-01-16T08:33:26.222Z,3.95
2019-01-16T08:36:23.602Z,3.99
2019-01-16T08:39:14.778Z,3.97
2019-01-16T08:42:08.989Z,3.85
2019-01-16T08:45:00.348Z,3.90
2019-01-16T08:47:57.926Z,4.04
2019-01-16T08:50:46.141Z,4.09
2019-01-16T08:53:31.176Z,4.11
2019-01-16T08:56:21.190Z,4.15
2019-01-16T08:59:15.436Z,4.19
2019-01-16T09:02:02.234Z,4.24
2019-01-16T09:04:49.376Z,4.31
2019-01-16T09:07:36.693Z,4.57
2019-01-16T09:10:16.810Z,4.58
2019-01-16T09:13:01.484Z,4.49
2019-01-16T09:16:01.859Z,4.65
2019-01-16T09:18:56.350Z,5.03
2019-01-16T09:21:50.635Z,4.74
2019-01-16T09:24:33.263Z,4.45
2019-01-16T09:27:39.643Z,4.28
2019-01-16T09:30:32.583Z,4.41
2019-01-16T09:33:19.385Z,4.70
2019-01-16T09:35:56.656Z,4.84
2019-01-16T09:38:45.579Z,4.78
2019-01-16T09:41:36.820Z,4.80
2019-01-16T09:44:23.922Z,4.97
2019-01-16T09:47:04.619Z,5.09
2019-01-16T09:49:50.563Z,5.07
2019-01-16T09:52:40.334Z,5.31
2019-01-16T09:55:24.156Z,5.26
2019-01-16T09:58:21.488Z,5.34
2019-01-16T10:01:08.566Z,5.25
2019-01-16T10:03:52.367Z,5.55
2019-01-16T10:06:52.963Z,5.77
2019-01-16T10:09:39.918Z,5.97
2019-01-16T10:12:37.171Z,6.26
2019-01-16T10:15:27.646Z,6.58
2019-01-16T10:18:09.590Z,6.50
2019-01-16T10:20:55.445Z,6.33
2019-01-16T10:23:38.909Z,6.46
2019-01-16T10:26:27.146Z,6.41
2019-01-16T10:29:17.022Z,6.46
2019-01-16T10:31:56.474Z,6.83
2019-01-16T10:35:00.598Z,6.44
2019-01-16T10:38:00.781Z,6.23
2019-01-16T10:40:47.752Z,6.13
2019-01-16T10:43:39.098Z,6.17
2019-01-16T10:46:30.060Z,6.27
2019-01-16T10:49:24.351Z,6.12
2019-01-16T10:52:15.351Z,6.26
2019-01-16T10:55:06.632Z,6.36
2019-01-16T10:58:06.918Z,6.61
2019-01-16T11:00:47.219Z,6.90
2019-01-16T11:03:41.534Z,6.56
2019-01-16T11:06:29.750Z,6.53
2019-01-16T11:09:24.314Z,6.28
2019-01-16T11:12:11.162Z,6.01
2019-01-16T11:15:05.517Z,6.26
2019-01-16T11:17:53.699Z,6.22
2019-01-16T11:20:54.241Z,6.26
2019-01-16T11:23:42.595Z,6.10
2019-01-16T11:26:27.997Z,5.86
2019-01-16T11:29:17.752Z,5.48
2019-01-16T11:32:08.910Z,5.72
2019-01-16T11:34:56.144Z,5.48
2019-01-16T11:37:51.493Z,5.55
2019-01-16T11:40:41.633Z,5.76
2019-01-16T11:46:14.543Z,6.21
2019-01-16T11:49:18.254Z,6.15
2019-01-16T11:52:15.514Z,6.32
2019-01-16T11:54:59.823Z,6.78
2019-01-16T11:57:56.977Z,6.69
2019-01-16T12:00:36.574Z,6.93
2019-01-16T12:03:27.610Z,7.39
2019-01-16T12:06:10.846Z,7.01
2019-01-16T12:08:59.036Z,7.26
2019-01-16T12:11:47.386Z,6.74
2019-01-16T12:14:26.411Z,6.96
2019-01-16T12:17:13.330Z,6.77
2019-01-16T12:20:04.502Z,6.52
2019-01-16T12:22:45.003Z,6.75
2019-01-16T12:25:21.144Z,6.58
2019-01-16T12:28:08.059Z,6.59
2019-01-16T12:30:57.304Z,6.12
2019-01-16T12:33:44.199Z,5.94
2019-01-16T12:36:38.508Z,6.32
2019-01-16T12:39:27.845Z,6.60
2019-01-16T12:42:19.105Z,6.69
2019-01-16T12:45:13.218Z,7.20
2019-01-16T12:47:51.123Z,7.83
2019-01-16T12:50:38.076Z,8.14
2019-01-16T12:53:29.018Z,8.55
2019-01-16T12:56:15.910Z,8.46
2019-01-16T12:59:04.103Z,8.48
2019-01-16T13:01:54.798Z,7.89
2019-01-16T13:04:42.998Z,8.85
2019-01-16T13:07:29.793Z,8.72
2019-01-16T13:10:17.122Z,9.25
2019-01-16T13:13:09.368Z,9.63
2019-01-16T13:16:09.608Z,9.06
2019-01-16T13:18:54.460Z,9.22
2019-01-16T13:21:41.639Z,9.55
2019-01-16T13:24:29.880Z,8.47
2019-01-16T13:27:18.084Z,8.45
2019-01-16T13:30:15.586Z,8.67
2019-01-16T13:33:06.142Z,8.57
2019-01-16T13:35:55.835Z,8.02
2019-01-16T13:38:46.874Z,8.43
2019-01-16T13:41:29.878Z,8.01
2019-01-16T13:44:18.096Z,7.42
2019-01-16T13:47:09.618Z,7.27
2019-01-16T13:50:04.783Z,7.17
2019-01-16T13:52:49.302Z,7.18
2019-01-16T13:55:46.546Z,7.09
2019-01-16T13:58:24.101Z,7.11
2019-01-16T14:01:13.337Z,6.80
2019-01-16T14:04:13.580Z,6.54
2019-01-16T14:07:20.190Z,6.43
2019-01-16T14:10:11.420Z,6.51
2019-01-16T14:12:58.223Z,6.17
2019-01-16T14:15:46.046Z,6.29
2019-01-16T14:18:37.496Z,6.41
2019-01-16T14:21:24.678Z,5.86
2019-01-16T14:24:15.884Z,5.92
2019-01-16T14:26:56.443Z,5.57
2019-01-16T14:29:47.511Z,5.63
2019-01-16T14:32:47.926Z,5.65
2019-01-16T14:35:48.470Z,5.58
2019-01-16T14:38:55.060Z,5.75
2019-01-16T14:41:35.270Z,5.38
2019-01-16T14:44:35.902Z,5.54
2019-01-16T14:47:24.495Z,5.38
2019-01-16T14:50:16.983Z,5.42
2019-01-16T14:53:11.410Z,5.34
2019-01-16T14:56:08.795Z,5.33
2019-01-16T14:58:55.370Z,5.26
2019-01-16T15:01:43.603Z,5.36
2019-01-16T15:04:34.590Z,5.53
2019-01-16T15:07:28.897Z,5.43
2019-01-16T15:10:17.099Z,5.33
2019-01-16T15:13:04.183Z,5.35
2019-01-16T15:15:47.879Z,5.35
2019-01-16T15:18:34.764Z,5.14
2019-01-16T15:21:20.882Z,5.30
2019-01-16T15:24:09.107Z,5.32
2019-01-16T15:26:56.258Z,5.22
2019-01-16T15:29:59.819Z,5.39
2019-01-16T15:32:50.837Z,5.25
2019-01-16T15:35:47.996Z,5.17
2019-01-16T15:38:33.647Z,5.18
2019-01-16T15:41:21.023Z,5.05
2019-01-16T15:44:15.419Z,5.05
2019-01-16T15:46:56.388Z,5.03
2019-01-16T15:49:39.035Z,4.85
2019-01-16T15:52:25.901Z,5.08
2019-01-16T15:55:13.807Z,4.99
2019-01-16T15:58:00.612Z,5.28
2019-01-16T16:00:48.942Z,5.02
2019-01-16T16:03:36.068Z,5.09
2019-01-16T16:06:22.995Z,5.03
2019-01-16T16:09:01.618Z,5.03
2019-01-16T16:11:48.954Z,5.04
2019-01-16T16:14:28.463Z,5.09
2019-01-16T16:17:12.224Z,5.05
2019-01-16T16:19:59.272Z,5.05
2019-01-16T16:22:38.987Z,5.05
2019-01-16T16:25:16.946Z,4.87
2019-01-16T16:28:11.016Z,4.87
2019-01-16T16:31:17.570Z,4.80
2019-01-16T16:34:03.103Z,4.78
2019-01-16T16:36:47.094Z,4.50
2019-01-16T16:39:50.470Z,4.40
2019-01-16T16:42:30.008Z,4.37
2019-01-16T16:45:27.361Z,4.27
2019-01-16T16:48:26.542Z,4.11
2019-01-16T16:51:18.083Z,4.16
2019-01-16T16:54:14.045Z,4.12
2019-01-16T16:57:09.056Z,4.12
2019-01-16T16:59:47.692Z,4.11
2019-01-16T17:02:51.488Z,3.99
2019-01-16T17:05:44.709Z,4.01
2019-01-16T17:08:32.166Z,3.92
2019-01-16T17:11:32.317Z,3.98
2019-01-16T17:14:23.375Z,3.91
2019-01-16T17:17:10.143Z,3.98
2019-01-16T17:19:59.814Z,3.97
2019-01-16T17:22:51.079Z,3.95
2019-01-16T17:25:33.657Z,3.87
2019-01-16T17:28:21.871Z,3.86
2019-01-16T17:31:10.116Z,3.77
2019-01-16T17:34:04.287Z,3.71
2019-01-16T17:36:46.838Z,3.83
2019-01-16T17:39:53.306Z,3.76
2019-01-16T17:42:44.625Z,3.75
2019-01-16T17:45:36.132Z,3.64
2019-01-16T17:48:36.523Z,3.73
2019-01-16T17:51:27.578Z,3.65
2019-01-16T17:54:18.519Z,3.66
2019-01-16T17:57:05.404Z,3.66
2019-01-16T17:59:52.368Z,3.71
2019-01-16T18:02:48.838Z,3.54
2019-01-16T18:05:37.166Z,3.57
2019-01-16T18:08:24.574Z,3.49
2019-01-16T18:11:12.799Z,3.40
2019-01-16T18:13:57.462Z,3.48
2019-01-16T18:16:46.794Z,3.28
2019-01-16T18:19:33.919Z,3.44
2019-01-16T18:22:20.996Z,3.27
2019-01-16T18:25:08.029Z,3.23
2019-01-16T18:27:56.244Z,3.28
2019-01-16T18:30:59.553Z,3.23
2019-01-16T18:33:59.793Z,3.13
2019-01-16T18:36:51.912Z,3.19
2019-01-16T18:39:32.080Z,3.15
2019-01-16T18:42:29.508Z,3.13
2019-01-16T18:45:17.738Z,3.12
2019-01-16T18:48:04.632Z,3.09
2019-01-16T18:50:53.396Z,3.03
2019-01-16T18:53:48.288Z,3.06
2019-01-16T18:56:44.925Z,3.15
2019-01-16T18:59:39.306Z,3.05
2019-01-16T19:02:34.015Z,3.10
2019-01-16T19:05:20.539Z,3.01
2019-01-16T19:08:10.235Z,2.98
2019-01-16T19:11:03.184Z,2.97
2019-01-16T19:14:00.456Z,3.01
2019-01-16T19:16:47.820Z,2.89
2019-01-16T19:19:36.864Z,2.99
2019-01-16T19:22:35.465Z,2.83
2019-01-16T19:25:17.015Z,2.93
2019-01-16T19:28:05.471Z,2.94
2019-01-16T19:30:54.449Z,2.89
2019-01-16T19:33:52.793Z,2.90
2019-01-16T19:36:44.684Z,2.89
2019-01-16T19:39:51.425Z,2.91
2019-01-16T19:42:49.087Z,2.83
2019-01-16T19:45:40.182Z,2.73
2019-01-16T19:48:38.457Z,2.80
2019-01-16T19:51:29.571Z,2.92
2019-01-16T19:54:16.981Z,2.82
2019-01-16T19:57:04.187Z,2.73
2019-01-16T19:59:53.581Z,2.69
2019-01-16T20:02:40.883Z,2.67
2019-01-16T20:05:28.103Z,2.67
2019-01-16T20:08:28.656Z,2.67
2019-01-16T20:11:20.369Z,2.66
2019-01-16T20:14:10.137Z,2.67
2019-01-16T20:16:57.807Z,2.59
2019-01-16T20:19:41.825Z,2.70
2019-01-16T20:22:36.234Z,2.53
2019-01-16T20:25:29.577Z,2.50
2019-01-16T20:28:32.874Z,2.43
2019-01-16T20:31:20.079Z,2.36
2019-01-16T20:34:12.737Z,2.32
2019-01-16T20:36:59.722Z,2.23
2019-01-16T20:39:51.071Z,2.34
2019-01-16T20:42:36.908Z,2.28
2019-01-16T20:45:25.496Z,2.25
2019-01-16T20:48:12.740Z,2.33
2019-01-16T20:50:56.186Z,2.25
2019-01-16T20:53:44.716Z,2.23
2019-01-16T20:56:30.207Z,2.15
2019-01-16T20:59:17.600Z,2.06
2019-01-16T21:02:04.993Z,2.07
2019-01-16T21:05:08.672Z,2.14
2019-01-16T21:08:06.169Z,2.06
2019-01-16T21:10:43.257Z,2.20
2019-01-16T21:13:30.974Z,2.13
2019-01-16T21:16:10.910Z,2.09
2019-01-16T21:18:57.780Z,2.06
2019-01-16T21:21:54.962Z,2.12
2019-01-16T21:24:57.250Z,2.15
2019-01-16T21:27:44.322Z,2.13
2019-01-16T21:30:27.650Z,2.17
2019-01-16T21:33:36.054Z,2.13
2019-01-16T21:36:25.139Z,2.06
2019-01-16T21:39:31.894Z,2.02
2019-01-16T21:42:20.181Z,1.98
2019-01-16T21:45:07.328Z,1.96
2019-01-16T21:47:54.408Z,1.97
2019-01-16T21:50:41.927Z,2.04
2019-01-16T21:53:30.396Z,2.00
2019-01-16T21:56:31.391Z,1.93
2019-01-16T21:59:20.238Z,1.98
2019-01-16T22:02:11.207Z,1.91
2019-01-16T22:04:59.745Z,1.99
2019-01-16T22:07:54.266Z,1.92
2019-01-16T22:10:51.903Z,2.03
2019-01-16T22:13:49.495Z,2.01
2019-01-16T22:16:43.888Z,1.95
2019-01-16T22:19:30.860Z,2.13
2019-01-16T22:22:25.659Z,2.13
2019-01-16T22:25:05.948Z,2.01
2019-01-16T22:27:53.022Z,1.99
2019-01-16T22:30:53.767Z,2.14
2019-01-16T22:33:33.882Z,2.27
2019-01-16T22:36:22.102Z,2.16
2019-01-16T22:39:13.359Z,2.31
2019-01-16T22:42:00.159Z,2.23
2019-01-16T22:44:51.392Z,2.23
2019-01-16T22:47:42.518Z,2.26
2019-01-16T22:50:31.295Z,2.28
2019-01-16T22:53:19.544Z,2.22
2019-01-16T22:56:17.068Z,2.07
2019-01-16T22:59:14.419Z,2.13
2019-01-16T23:01:53.655Z,2.13
2019-01-16T23:04:43.347Z,2.19
2019-01-16T23:07:40.688Z,2.15
2019-01-16T23:10:29.159Z,2.20
2019-01-16T23:13:26.273Z,2.31
2019-01-16T23:16:13.346Z,2.17
2019-01-16T23:19:00.239Z,2.20
2019-01-16T23:21:47.219Z,2.24
2019-01-16T23:24:22.211Z,2.19
2019-01-16T23:27:19.000Z,2.17
2019-01-16T23:30:07.199Z,2.11
2019-01-16T23:33:01.504Z,2.18
2019-01-16T23:35:44.779Z,2.01
2019-01-16T23:38:34.165Z,2.14
2019-01-16T23:41:25.439Z,2.09
2019-01-16T23:44:13.702Z,2.22
2019-01-16T23:46:59.056Z,2.04
2019-01-16T23:49:59.649Z,2.14
2019-01-16T23:52:57.039Z,2.20
2019-01-16T23:55:41.012Z,2.10
2019-01-16T23:58:23.972Z,2.23
